SLCS weather

Cerdas Airport
Nor Lipez, Potosí Department, Bolivia

Public forecast

Using degrees Celsius for public forecast. Weather courtesy of forecast.io.

METAR (pilot weather report)

Report is more than 6 hours old.

Closest report is Uyuni Airport, 33.2 nm (61.5 km) NW. Retrieved 2019/08/26 15:00 UTC (27 days ago):

SLUY 261500Z 27004KT 9999 NSC 07/M10 Q1038

TAF (pilot weather forecast)

Forecast is more than 12 hours old.

Closest forecast is Uyuni Airport, 33.2 nm (61.5 km) NW. Retrieved 2019/08/28 06:35 UTC (25 days ago):

TAF SLUY 280435Z 2806/2906 02010KT 9999 NSC TX15/2820Z TNM11/2810Z BECMG 2816/2818 34015KT FEW025